Main page
METAR-TAF:

METAR-TAF

Airports :

Nan Nakhon Airport

Nan, Thailand

latitude: 18-46N, longitude: 100-46E, elevation: 200 m

Current weather observation

The report was made 8 hours and 53 minutes ago, at 13:00 UTC
Wind 4 kt from the South, varying between Southeast and Southwest
Temperature 35°C
Humidity 44%
Pressure 1003 hPa
Visibility 10 km or more
no clouds below 1500 m and no cumulonimbus

METAR: VTCN 221300Z 17004KT 140V220 CAVOK 35/21 Q1003 NOSIG

Time: 04:53 (21:53 UTC)

Forecast

The report was made 4 hours and 53 minutes ago, at 17:00 UTC
Forecast valid from 22 at 18 UTC to 23 at 18 UTC
Wind 5 kt from the North/Northeast
Visibility 10 km or more
Few clouds at a height of 2500 ft
Becoming
from 23 at 01 UTC to 23 at 03 UTC
Wind 5 kt from the South
Becoming
from 23 at 10 UTC to 23 at 12 UTC
Wind 5 kt from the North

TAF: VTCN 221700Z 2218/2318 02005KT 9999 FEW025 BECMG 2301/2303 18005KT BECMG 2310/2312 36005KT

Weather observations and forecasts of more than 4000 airports (METAR and TAF reports).

The available stations are represented by yellow and red dots on the map.

Hover mouse over dot to see the name of the station.

Then click to see weather observations and forecasts.

To change the map : click on the green buttons with a black cross to zoom in, on the green button with a dash to zoom out, or on the green arrows for adjacent maps.


METAR-TAF: